sensor_id;sensor_type;location;lat;lon;timestamp;temperature;humidity
1806;DHT22;901;48.142;11.516;2022-07-29T00:01:44;20.40;99.90
1806;DHT22;901;48.142;11.516;2022-07-29T00:04:11;20.30;99.90
1806;DHT22;901;48.142;11.516;2022-07-29T00:06:38;20.30;99.90
1806;DHT22;901;48.142;11.516;2022-07-29T00:09:05;20.30;99.90
1806;DHT22;901;48.142;11.516;2022-07-29T00:11:32;20.30;99.90
1806;DHT22;901;48.142;11.516;2022-07-29T00:13:59;20.20;99.90
1806;DHT22;901;48.142;11.516;2022-07-29T00:16:26;20.20;99.90
1806;DHT22;901;48.142;11.516;2022-07-29T00:18:54;20.20;99.90
1806;DHT22;901;48.142;11.516;2022-07-29T00:21:21;20.20;99.90
1806;DHT22;901;48.142;11.516;2022-07-29T00:23:48;20.10;99.90
1806;DHT22;901;48.142;11.516;2022-07-29T00:26:15;20.10;99.90
1806;DHT22;901;48.142;11.516;2022-07-29T00:28:42;20.10;99.90
1806;DHT22;901;48.142;11.516;2022-07-29T00:31:09;20.00;99.90
1806;DHT22;901;48.142;11.516;2022-07-29T00:33:36;20.00;99.90
1806;DHT22;901;48.142;11.516;2022-07-29T00:36:04;20.00;99.90
1806;DHT22;901;48.142;11.516;2022-07-29T00:38:30;20.00;99.90
1806;DHT22;901;48.142;11.516;2022-07-29T00:40:57;20.00;99.90
1806;DHT22;901;48.142;11.516;2022-07-29T00:43:24;20.00;99.90
1806;DHT22;901;48.142;11.516;2022-07-29T00:45:51;20.00;99.90
1806;DHT22;901;48.142;11.516;2022-07-29T00:48:18;20.00;99.90
1806;DHT22;901;48.142;11.516;2022-07-29T00:50:45;20.00;99.90
1806;DHT22;901;48.142;11.516;2022-07-29T00:53:13;20.00;99.90
1806;DHT22;901;48.142;11.516;2022-07-29T00:55:40;20.00;99.90
1806;DHT22;901;48.142;11.516;2022-07-29T00:58:07;20.00;99.90
1806;DHT22;901;48.142;11.516;2022-07-29T01:00:34;20.10;99.90
1806;DHT22;901;48.142;11.516;2022-07-29T01:03:02;20.10;99.90
1806;DHT22;901;48.142;11.516;2022-07-29T01:05:30;20.10;99.90
1806;DHT22;901;48.142;11.516;2022-07-29T01:07:57;20.10;99.90
1806;DHT22;901;48.142;11.516;2022-07-29T01:10:26;20.10;99.90
1806;DHT22;901;48.142;11.516;2022-07-29T01:12:56;20.10;99.90
1806;DHT22;901;48.142;11.516;2022-07-29T01:15:23;20.10;99.90
1806;DHT22;901;48.142;11.516;2022-07-29T01:17:56;20.20;99.90
1806;DHT22;901;48.142;11.516;2022-07-29T01:20:34;20.20;99.90
1806;DHT22;901;48.142;11.516;2022-07-29T01:23:34;20.30;99.90
1806;DHT22;901;48.142;11.516;2022-07-29T01:26:31;20.30;99.90
1806;DHT22;901;48.142;11.516;2022-07-29T01:29:06;20.30;99.90
1806;DHT22;901;48.142;11.516;2022-07-29T01:31:42;20.40;99.90
1806;DHT22;901;48.142;11.516;2022-07-29T01:34:12;20.40;99.90
1806;DHT22;901;48.142;11.516;2022-07-29T01:36:43;20.40;99.90
1806;DHT22;901;48.142;11.516;2022-07-29T01:39:16;20.40;99.90
1806;DHT22;901;48.142;11.516;2022-07-29T01:41:49;20.40;99.90
1806;DHT22;901;48.142;11.516;2022-07-29T01:44:22;20.40;99.90
1806;DHT22;901;48.142;11.516;2022-07-29T01:46:53;20.40;99.90
1806;DHT22;901;48.142;11.516;2022-07-29T01:49:24;20.40;99.90
1806;DHT22;901;48.142;11.516;2022-07-29T01:51:56;20.40;99.90
1806;DHT22;901;48.142;11.516;2022-07-29T01:54:26;20.40;99.90
1806;DHT22;901;48.142;11.516;2022-07-29T01:56:56;20.40;99.90
1806;DHT22;901;48.142;11.516;2022-07-29T01:59:26;20.40;99.90
1806;DHT22;901;48.142;11.516;2022-07-29T02:01:57;20.30;99.90
1806;DHT22;901;48.142;11.516;2022-07-29T02:04:26;20.30;99.90
1806;DHT22;901;48.142;11.516;2022-07-29T02:06:54;20.40;99.90
1806;DHT22;901;48.142;11.516;2022-07-29T02:09:24;20.30;99.90
1806;DHT22;901;48.142;11.516;2022-07-29T02:11:53;20.30;99.90
1806;DHT22;901;48.142;11.516;2022-07-29T02:14:22;20.30;99.90
1806;DHT22;901;48.142;11.516;2022-07-29T02:16:53;20.30;99.90
1806;DHT22;901;48.142;11.516;2022-07-29T02:19:22;20.30;99.90
1806;DHT22;901;48.142;11.516;2022-07-29T02:21:53;20.30;99.90
1806;DHT22;901;48.142;11.516;2022-07-29T02:24:22;20.30;99.90
1806;DHT22;901;48.142;11.516;2022-07-29T02:26:51;20.30;99.90
1806;DHT22;901;48.142;11.516;2022-07-29T02:29:20;20.30;99.90
1806;DHT22;901;48.142;11.516;2022-07-29T02:31:50;20.30;99.90
1806;DHT22;901;48.142;11.516;2022-07-29T02:34:19;20.20;99.90
1806;DHT22;901;48.142;11.516;2022-07-29T02:36:46;20.20;99.90
1806;DHT22;901;48.142;11.516;2022-07-29T02:39:15;20.20;99.90
1806;DHT22;901;48.142;11.516;2022-07-29T02:41:44;20.10;99.90
1806;DHT22;901;48.142;11.516;2022-07-29T02:44:13;20.10;99.90
1806;DHT22;901;48.142;11.516;2022-07-29T02:46:45;20.10;99.90
1806;DHT22;901;48.142;11.516;2022-07-29T02:49:17;20.00;99.90
1806;DHT22;901;48.142;11.516;2022-07-29T02:51:46;20.00;99.90
1806;DHT22;901;48.142;11.516;2022-07-29T02:54:21;19.90;99.90
1806;DHT22;901;48.142;11.516;2022-07-29T02:56:49;19.90;99.90
1806;DHT22;901;48.142;11.516;2022-07-29T02:59:23;19.80;99.90
1806;DHT22;901;48.142;11.516;2022-07-29T03:01:52;19.80;99.90
1806;DHT22;901;48.142;11.516;2022-07-29T03:04:23;19.70;99.90
1806;DHT22;901;48.142;11.516;2022-07-29T03:06:51;19.60;99.90
1806;DHT22;901;48.142;11.516;2022-07-29T03:09:19;19.50;99.90
1806;DHT22;901;48.142;11.516;2022-07-29T03:11:47;19.40;99.90
1806;DHT22;901;48.142;11.516;2022-07-29T03:14:16;19.30;99.90
1806;DHT22;901;48.142;11.516;2022-07-29T03:16:43;19.20;99.90
1806;DHT22;901;48.142;11.516;2022-07-29T03:19:10;19.20;99.90
1806;DHT22;901;48.142;11.516;2022-07-29T03:21:38;19.20;99.90
1806;DHT22;901;48.142;11.516;2022-07-29T03:24:06;19.10;99.90
1806;DHT22;901;48.142;11.516;2022-07-29T03:26:33;19.10;99.90
1806;DHT22;901;48.142;11.516;2022-07-29T03:29:00;19.00;99.90
1806;DHT22;901;48.142;11.516;2022-07-29T03:31:27;18.90;99.90
1806;DHT22;901;48.142;11.516;2022-07-29T03:33:54;18.90;99.90
1806;DHT22;901;48.142;11.516;2022-07-29T03:36:21;18.90;99.90
1806;DHT22;901;48.142;11.516;2022-07-29T03:38:49;18.80;99.90
1806;DHT22;901;48.142;11.516;2022-07-29T03:41:17;18.80;99.90
1806;DHT22;901;48.142;11.516;2022-07-29T03:43:46;18.70;99.90
1806;DHT22;901;48.142;11.516;2022-07-29T03:46:14;18.80;99.90
1806;DHT22;901;48.142;11.516;2022-07-29T03:48:45;18.80;99.90
1806;DHT22;901;48.142;11.516;2022-07-29T03:51:13;18.80;99.90
1806;DHT22;901;48.142;11.516;2022-07-29T03:53:40;18.80;99.90
1806;DHT22;901;48.142;11.516;2022-07-29T03:56:10;18.80;99.90
1806;DHT22;901;48.142;11.516;2022-07-29T03:58:41;18.70;99.90
1806;DHT22;901;48.142;11.516;2022-07-29T04:01:08;18.70;99.90
1806;DHT22;901;48.142;11.516;2022-07-29T04:03:36;18.70;99.90
1806;DHT22;901;48.142;11.516;2022-07-29T04:06:04;18.70;99.90
1806;DHT22;901;48.142;11.516;2022-07-29T04:08:32;18.70;99.90
1806;DHT22;901;48.142;11.516;2022-07-29T04:10:59;18.70;99.90
1806;DHT22;901;48.142;11.516;2022-07-29T04:13:28;18.80;99.90
1806;DHT22;901;48.142;11.516;2022-07-29T04:15:55;18.80;99.90
1806;DHT22;901;48.142;11.516;2022-07-29T04:18:22;18.90;99.90
1806;DHT22;901;48.142;11.516;2022-07-29T04:20:49;18.90;99.90
1806;DHT22;901;48.142;11.516;2022-07-29T04:23:16;19.00;99.90
1806;DHT22;901;48.142;11.516;2022-07-29T04:25:43;19.10;99.90
1806;DHT22;901;48.142;11.516;2022-07-29T04:28:10;19.20;99.90
1806;DHT22;901;48.142;11.516;2022-07-29T04:30:38;19.50;99.90
1806;DHT22;901;48.142;11.516;2022-07-29T04:33:06;19.90;99.90
1806;DHT22;901;48.142;11.516;2022-07-29T04:35:34;20.40;99.90
1806;DHT22;901;48.142;11.516;2022-07-29T04:38:02;21.10;99.90
1806;DHT22;901;48.142;11.516;2022-07-29T04:40:29;21.70;99.90
1806;DHT22;901;48.142;11.516;2022-07-29T04:42:56;22.20;99.90
1806;DHT22;901;48.142;11.516;2022-07-29T04:45:23;22.70;99.90
1806;DHT22;901;48.142;11.516;2022-07-29T04:47:51;23.20;99.90
1806;DHT22;901;48.142;11.516;2022-07-29T04:50:18;23.60;99.90
1806;DHT22;901;48.142;11.516;2022-07-29T04:52:45;24.10;99.90
1806;DHT22;901;48.142;11.516;2022-07-29T04:55:12;24.60;99.90
1806;DHT22;901;48.142;11.516;2022-07-29T04:57:38;25.10;99.90
1806;DHT22;901;48.142;11.516;2022-07-29T05:00:07;25.50;99.90
1806;DHT22;901;48.142;11.516;2022-07-29T05:02:34;25.60;99.90
1806;DHT22;901;48.142;11.516;2022-07-29T05:05:03;25.60;99.90
1806;DHT22;901;48.142;11.516;2022-07-29T05:07:30;25.80;99.90
1806;DHT22;901;48.142;11.516;2022-07-29T05:09:56;25.90;99.90
1806;DHT22;901;48.142;11.516;2022-07-29T05:12:23;25.70;99.90
1806;DHT22;901;48.142;11.516;2022-07-29T05:14:51;25.10;99.90
1806;DHT22;901;48.142;11.516;2022-07-29T05:17:18;24.80;99.90
1806;DHT22;901;48.142;11.516;2022-07-29T05:19:45;24.50;99.90
1806;DHT22;901;48.142;11.516;2022-07-29T05:22:13;24.20;99.90
1806;DHT22;901;48.142;11.516;2022-07-29T05:24:40;23.90;99.90
1806;DHT22;901;48.142;11.516;2022-07-29T05:27:07;23.90;99.90
1806;DHT22;901;48.142;11.516;2022-07-29T05:29:34;24.10;99.90
1806;DHT22;901;48.142;11.516;2022-07-29T05:32:02;24.60;99.90
1806;DHT22;901;48.142;11.516;2022-07-29T05:34:29;25.10;99.90
1806;DHT22;901;48.142;11.516;2022-07-29T05:36:56;25.70;99.90
1806;DHT22;901;48.142;11.516;2022-07-29T05:39:24;26.20;99.90
1806;DHT22;901;48.142;11.516;2022-07-29T05:41:51;26.50;99.90
1806;DHT22;901;48.142;11.516;2022-07-29T05:44:18;26.60;99.90
1806;DHT22;901;48.142;11.516;2022-07-29T05:46:45;26.70;99.90
1806;DHT22;901;48.142;11.516;2022-07-29T05:49:12;26.80;99.90
1806;DHT22;901;48.142;11.516;2022-07-29T05:51:39;26.80;99.90
1806;DHT22;901;48.142;11.516;2022-07-29T05:54:06;26.80;99.90
1806;DHT22;901;48.142;11.516;2022-07-29T05:56:35;26.90;99.90
1806;DHT22;901;48.142;11.516;2022-07-29T05:59:02;27.10;99.90
1806;DHT22;901;48.142;11.516;2022-07-29T06:01:29;27.40;99.90
1806;DHT22;901;48.142;11.516;2022-07-29T06:03:56;27.60;99.90
1806;DHT22;901;48.142;11.516;2022-07-29T06:06:23;27.90;99.90
1806;DHT22;901;48.142;11.516;2022-07-29T06:08:50;28.00;99.90
1806;DHT22;901;48.142;11.516;2022-07-29T06:11:17;28.20;99.90
1806;DHT22;901;48.142;11.516;2022-07-29T06:13:45;28.20;99.90
1806;DHT22;901;48.142;11.516;2022-07-29T06:16:12;28.20;99.90
1806;DHT22;901;48.142;11.516;2022-07-29T06:18:39;27.90;99.90
1806;DHT22;901;48.142;11.516;2022-07-29T06:21:08;27.50;99.90
1806;DHT22;901;48.142;11.516;2022-07-29T06:23:36;27.20;99.90
1806;DHT22;901;48.142;11.516;2022-07-29T06:26:03;26.80;99.90
1806;DHT22;901;48.142;11.516;2022-07-29T06:28:30;26.50;99.90
1806;DHT22;901;48.142;11.516;2022-07-29T06:30:59;26.30;99.90
1806;DHT22;901;48.142;11.516;2022-07-29T06:33:26;26.10;99.90
1806;DHT22;901;48.142;11.516;2022-07-29T06:35:53;25.80;99.90
1806;DHT22;901;48.142;11.516;2022-07-29T06:38:20;25.70;99.90
1806;DHT22;901;48.142;11.516;2022-07-29T06:40:47;25.60;99.90
1806;DHT22;901;48.142;11.516;2022-07-29T06:43:31;25.60;99.90
1806;DHT22;901;48.142;11.516;2022-07-29T06:46:04;25.60;99.90
1806;DHT22;901;48.142;11.516;2022-07-29T06:48:33;25.60;99.90
1806;DHT22;901;48.142;11.516;2022-07-29T06:51:00;25.60;99.90
1806;DHT22;901;48.142;11.516;2022-07-29T06:53:27;25.60;99.90
1806;DHT22;901;48.142;11.516;2022-07-29T06:55:54;25.60;99.90
1806;DHT22;901;48.142;11.516;2022-07-29T06:58:21;25.60;99.90
1806;DHT22;901;48.142;11.516;2022-07-29T07:00:48;25.70;99.90
1806;DHT22;901;48.142;11.516;2022-07-29T07:03:17;25.80;99.90
1806;DHT22;901;48.142;11.516;2022-07-29T07:05:45;25.80;99.90
1806;DHT22;901;48.142;11.516;2022-07-29T07:08:13;25.80;99.90
1806;DHT22;901;48.142;11.516;2022-07-29T07:10:41;25.80;99.90
1806;DHT22;901;48.142;11.516;2022-07-29T07:13:09;25.90;99.90
1806;DHT22;901;48.142;11.516;2022-07-29T07:15:36;25.90;99.90
1806;DHT22;901;48.142;11.516;2022-07-29T07:18:03;26.00;99.90
1806;DHT22;901;48.142;11.516;2022-07-29T07:20:32;26.00;99.90
1806;DHT22;901;48.142;11.516;2022-07-29T07:22:59;25.90;99.90
1806;DHT22;901;48.142;11.516;2022-07-29T07:25:26;25.90;99.90
1806;DHT22;901;48.142;11.516;2022-07-29T07:27:53;25.80;99.90
1806;DHT22;901;48.142;11.516;2022-07-29T07:30:20;25.80;99.90
1806;DHT22;901;48.142;11.516;2022-07-29T07:32:47;25.90;99.90
1806;DHT22;901;48.142;11.516;2022-07-29T07:35:14;25.50;99.90
1806;DHT22;901;48.142;11.516;2022-07-29T07:37:42;25.30;99.90
1806;DHT22;901;48.142;11.516;2022-07-29T07:40:11;25.40;99.90
1806;DHT22;901;48.142;11.516;2022-07-29T07:42:38;25.40;99.90
1806;DHT22;901;48.142;11.516;2022-07-29T07:45:06;25.40;99.90
1806;DHT22;901;48.142;11.516;2022-07-29T07:47:34;25.30;99.90
1806;DHT22;901;48.142;11.516;2022-07-29T07:50:02;25.50;99.90
1806;DHT22;901;48.142;11.516;2022-07-29T07:52:29;25.20;99.90
1806;DHT22;901;48.142;11.516;2022-07-29T07:54:57;24.90;99.90
1806;DHT22;901;48.142;11.516;2022-07-29T07:57:24;24.90;99.90
1806;DHT22;901;48.142;11.516;2022-07-29T07:59:50;24.80;99.90
1806;DHT22;901;48.142;11.516;2022-07-29T08:02:17;25.10;99.90
1806;DHT22;901;48.142;11.516;2022-07-29T08:04:44;25.30;99.90
1806;DHT22;901;48.142;11.516;2022-07-29T08:07:11;25.50;99.90
1806;DHT22;901;48.142;11.516;2022-07-29T08:09:40;25.60;99.90
1806;DHT22;901;48.142;11.516;2022-07-29T08:12:08;25.80;99.90
1806;DHT22;901;48.142;11.516;2022-07-29T08:14:35;26.10;99.90
1806;DHT22;901;48.142;11.516;2022-07-29T08:17:02;26.20;99.90
1806;DHT22;901;48.142;11.516;2022-07-29T08:19:29;26.20;99.90
1806;DHT22;901;48.142;11.516;2022-07-29T08:21:56;26.30;99.90
1806;DHT22;901;48.142;11.516;2022-07-29T08:24:23;26.50;99.90
1806;DHT22;901;48.142;11.516;2022-07-29T08:27:09;26.60;99.90
1806;DHT22;901;48.142;11.516;2022-07-29T08:29:36;26.70;99.90
1806;DHT22;901;48.142;11.516;2022-07-29T08:32:03;26.80;99.90
1806;DHT22;901;48.142;11.516;2022-07-29T08:34:31;26.80;99.90
1806;DHT22;901;48.142;11.516;2022-07-29T08:36:58;27.00;99.90
1806;DHT22;901;48.142;11.516;2022-07-29T08:39:25;27.20;99.90
1806;DHT22;901;48.142;11.516;2022-07-29T08:41:52;27.50;99.90
1806;DHT22;901;48.142;11.516;2022-07-29T08:44:21;27.80;99.90
1806;DHT22;901;48.142;11.516;2022-07-29T08:46:49;28.20;99.90
1806;DHT22;901;48.142;11.516;2022-07-29T08:49:16;28.50;99.90
1806;DHT22;901;48.142;11.516;2022-07-29T08:51:44;28.70;99.90
1806;DHT22;901;48.142;11.516;2022-07-29T08:54:11;29.00;99.90
1806;DHT22;901;48.142;11.516;2022-07-29T08:56:43;29.10;99.90
1806;DHT22;901;48.142;11.516;2022-07-29T08:59:10;29.20;99.90
1806;DHT22;901;48.142;11.516;2022-07-29T09:01:39;29.00;99.90
1806;DHT22;901;48.142;11.516;2022-07-29T09:04:11;28.70;99.90
1806;DHT22;901;48.142;11.516;2022-07-29T09:06:42;28.30;99.90
1806;DHT22;901;48.142;11.516;2022-07-29T09:09:09;27.80;99.90
1806;DHT22;901;48.142;11.516;2022-07-29T09:11:36;27.60;99.90
1806;DHT22;901;48.142;11.516;2022-07-29T09:14:03;27.50;99.90
1806;DHT22;901;48.142;11.516;2022-07-29T09:16:50;27.70;99.90
1806;DHT22;901;48.142;11.516;2022-07-29T09:19:22;27.50;99.90
1806;DHT22;901;48.142;11.516;2022-07-29T09:21:49;28.00;99.90
1806;DHT22;901;48.142;11.516;2022-07-29T09:24:26;28.40;99.90
1806;DHT22;901;48.142;11.516;2022-07-29T09:26:54;28.20;99.90
1806;DHT22;901;48.142;11.516;2022-07-29T09:29:23;27.90;99.90
1806;DHT22;901;48.142;11.516;2022-07-29T09:31:52;27.40;99.90
1806;DHT22;901;48.142;11.516;2022-07-29T09:34:24;27.20;99.90
1806;DHT22;901;48.142;11.516;2022-07-29T09:36:53;27.30;99.90
1806;DHT22;901;48.142;11.516;2022-07-29T09:39:29;27.50;99.90
1806;DHT22;901;48.142;11.516;2022-07-29T09:41:57;27.80;99.90
1806;DHT22;901;48.142;11.516;2022-07-29T09:44:25;28.10;99.90
1806;DHT22;901;48.142;11.516;2022-07-29T09:46:56;28.40;99.90
1806;DHT22;901;48.142;11.516;2022-07-29T09:49:23;28.60;99.90
1806;DHT22;901;48.142;11.516;2022-07-29T09:52:05;28.50;99.90
1806;DHT22;901;48.142;11.516;2022-07-29T09:54:33;28.10;99.90
1806;DHT22;901;48.142;11.516;2022-07-29T09:57:04;28.20;99.90
1806;DHT22;901;48.142;11.516;2022-07-29T09:59:32;28.50;99.90
1806;DHT22;901;48.142;11.516;2022-07-29T10:02:01;28.70;99.90
1806;DHT22;901;48.142;11.516;2022-07-29T10:04:38;28.90;99.90
1806;DHT22;901;48.142;11.516;2022-07-29T10:07:05;29.00;99.90
1806;DHT22;901;48.142;11.516;2022-07-29T10:09:32;29.20;99.90
1806;DHT22;901;48.142;11.516;2022-07-29T10:12:07;29.30;99.90
1806;DHT22;901;48.142;11.516;2022-07-29T10:14:36;29.60;99.90
1806;DHT22;901;48.142;11.516;2022-07-29T10:17:06;29.70;99.90
1806;DHT22;901;48.142;11.516;2022-07-29T10:19:35;29.70;99.90
1806;DHT22;901;48.142;11.516;2022-07-29T10:22:04;29.90;99.90
1806;DHT22;901;48.142;11.516;2022-07-29T10:24:31;30.00;99.90
1806;DHT22;901;48.142;11.516;2022-07-29T10:27:01;30.10;99.90
1806;DHT22;901;48.142;11.516;2022-07-29T10:29:29;30.00;99.90
1806;DHT22;901;48.142;11.516;2022-07-29T10:32:16;30.10;99.90
1806;DHT22;901;48.142;11.516;2022-07-29T10:35:01;30.20;99.90
1806;DHT22;901;48.142;11.516;2022-07-29T10:40:28;30.60;99.90
1806;DHT22;901;48.142;11.516;2022-07-29T10:43:19;30.50;99.90
1806;DHT22;901;48.142;11.516;2022-07-29T10:45:48;30.40;99.90
1806;DHT22;901;48.142;11.516;2022-07-29T10:48:17;30.50;99.90
1806;DHT22;901;48.142;11.516;2022-07-29T10:50:55;30.10;99.90
1806;DHT22;901;48.142;11.516;2022-07-29T10:53:22;30.00;99.90
1806;DHT22;901;48.142;11.516;2022-07-29T10:55:51;29.50;99.90
1806;DHT22;901;48.142;11.516;2022-07-29T10:58:19;29.50;99.90
1806;DHT22;901;48.142;11.516;2022-07-29T11:00:47;29.60;99.90
1806;DHT22;901;48.142;11.516;2022-07-29T11:03:44;29.50;99.90
1806;DHT22;901;48.142;11.516;2022-07-29T11:06:12;29.40;99.90
1806;DHT22;901;48.142;11.516;2022-07-29T11:08:40;29.50;99.90
1806;DHT22;901;48.142;11.516;2022-07-29T11:11:31;29.80;99.90
1806;DHT22;901;48.142;11.516;2022-07-29T11:13:58;30.10;99.90
1806;DHT22;901;48.142;11.516;2022-07-29T11:16:25;30.20;99.20
1806;DHT22;901;48.142;11.516;2022-07-29T11:19:20;29.80;99.80
1806;DHT22;901;48.142;11.516;2022-07-29T11:21:48;29.60;99.90
1806;DHT22;901;48.142;11.516;2022-07-29T11:24:18;29.70;99.50
1806;DHT22;901;48.142;11.516;2022-07-29T11:27:10;29.90;99.30
1806;DHT22;901;48.142;11.516;2022-07-29T11:29:40;30.10;99.70
1806;DHT22;901;48.142;11.516;2022-07-29T11:32:11;30.10;99.50
1806;DHT22;901;48.142;11.516;2022-07-29T11:34:41;30.00;99.50
1806;DHT22;901;48.142;11.516;2022-07-29T11:37:21;30.00;98.50
1806;DHT22;901;48.142;11.516;2022-07-29T11:40:08;29.70;99.10
1806;DHT22;901;48.142;11.516;2022-07-29T11:42:43;29.00;99.60
1806;DHT22;901;48.142;11.516;2022-07-29T11:45:12;28.70;99.80
1806;DHT22;901;48.142;11.516;2022-07-29T11:47:41;28.50;99.10
1806;DHT22;901;48.142;11.516;2022-07-29T11:50:12;28.10;98.60
1806;DHT22;901;48.142;11.516;2022-07-29T11:52:41;27.80;99.40
1806;DHT22;901;48.142;11.516;2022-07-29T11:55:14;27.90;99.50
1806;DHT22;901;48.142;11.516;2022-07-29T11:57:49;28.30;99.70
1806;DHT22;901;48.142;11.516;2022-07-29T12:00:27;28.70;99.40
1806;DHT22;901;48.142;11.516;2022-07-29T12:02:55;28.80;99.90
1806;DHT22;901;48.142;11.516;2022-07-29T12:05:33;29.00;99.90
1806;DHT22;901;48.142;11.516;2022-07-29T12:08:14;29.40;99.20
1806;DHT22;901;48.142;11.516;2022-07-29T12:10:42;29.10;98.50
1806;DHT22;901;48.142;11.516;2022-07-29T12:13:09;28.70;99.10
1806;DHT22;901;48.142;11.516;2022-07-29T12:15:37;28.80;99.40
1806;DHT22;901;48.142;11.516;2022-07-29T12:18:11;29.00;99.50
1806;DHT22;901;48.142;11.516;2022-07-29T12:20:40;29.50;98.70
1806;DHT22;901;48.142;11.516;2022-07-29T12:23:08;29.30;98.30
1806;DHT22;901;48.142;11.516;2022-07-29T12:25:37;29.00;98.90
1806;DHT22;901;48.142;11.516;2022-07-29T12:28:05;29.10;98.60
1806;DHT22;901;48.142;11.516;2022-07-29T12:30:41;29.20;98.50
1806;DHT22;901;48.142;11.516;2022-07-29T12:33:22;29.20;98.90
1806;DHT22;901;48.142;11.516;2022-07-29T12:35:52;29.40;99.00
1806;DHT22;901;48.142;11.516;2022-07-29T12:38:20;29.50;98.70
1806;DHT22;901;48.142;11.516;2022-07-29T12:40:48;29.60;98.70
1806;DHT22;901;48.142;11.516;2022-07-29T12:43:17;29.50;98.20
1806;DHT22;901;48.142;11.516;2022-07-29T12:45:46;29.30;98.10
1806;DHT22;901;48.142;11.516;2022-07-29T12:48:13;28.80;98.40
1806;DHT22;901;48.142;11.516;2022-07-29T12:50:55;28.40;99.00
1806;DHT22;901;48.142;11.516;2022-07-29T12:53:22;28.30;98.80
1806;DHT22;901;48.142;11.516;2022-07-29T12:55:51;28.20;98.90
1806;DHT22;901;48.142;11.516;2022-07-29T12:58:32;28.30;99.20
1806;DHT22;901;48.142;11.516;2022-07-29T13:01:05;28.20;99.10
1806;DHT22;901;48.142;11.516;2022-07-29T13:03:46;27.70;99.90
1806;DHT22;901;48.142;11.516;2022-07-29T13:06:34;27.50;99.90
1806;DHT22;901;48.142;11.516;2022-07-29T13:09:05;27.10;99.90
1806;DHT22;901;48.142;11.516;2022-07-29T13:11:33;26.90;99.90
1806;DHT22;901;48.142;11.516;2022-07-29T13:14:00;26.90;99.90
1806;DHT22;901;48.142;11.516;2022-07-29T13:16:27;26.90;99.90
1806;DHT22;901;48.142;11.516;2022-07-29T13:19:18;27.00;99.90
1806;DHT22;901;48.142;11.516;2022-07-29T13:21:46;26.90;99.90
1806;DHT22;901;48.142;11.516;2022-07-29T13:24:13;27.10;99.90
1806;DHT22;901;48.142;11.516;2022-07-29T13:26:40;27.30;99.90
1806;DHT22;901;48.142;11.516;2022-07-29T13:29:07;27.40;99.90
1806;DHT22;901;48.142;11.516;2022-07-29T13:31:34;27.40;99.90
1806;DHT22;901;48.142;11.516;2022-07-29T13:34:01;27.40;99.90
1806;DHT22;901;48.142;11.516;2022-07-29T13:36:28;27.40;99.90
1806;DHT22;901;48.142;11.516;2022-07-29T13:38:56;27.30;99.90
1806;DHT22;901;48.142;11.516;2022-07-29T13:41:23;27.30;99.90
1806;DHT22;901;48.142;11.516;2022-07-29T13:43:49;27.20;99.90
1806;DHT22;901;48.142;11.516;2022-07-29T13:46:16;27.20;99.90
1806;DHT22;901;48.142;11.516;2022-07-29T13:48:43;27.20;99.90
1806;DHT22;901;48.142;11.516;2022-07-29T13:51:10;27.30;99.90
1806;DHT22;901;48.142;11.516;2022-07-29T13:53:37;27.40;99.90
1806;DHT22;901;48.142;11.516;2022-07-29T13:56:05;27.10;99.90
1806;DHT22;901;48.142;11.516;2022-07-29T13:58:32;26.90;99.90
1806;DHT22;901;48.142;11.516;2022-07-29T14:00:59;26.90;99.90
1806;DHT22;901;48.142;11.516;2022-07-29T14:03:26;27.00;99.90
1806;DHT22;901;48.142;11.516;2022-07-29T14:05:53;27.20;99.90
1806;DHT22;901;48.142;11.516;2022-07-29T14:08:21;27.50;99.90
1806;DHT22;901;48.142;11.516;2022-07-29T14:10:48;27.90;99.90
1806;DHT22;901;48.142;11.516;2022-07-29T14:13:16;28.00;99.90
1806;DHT22;901;48.142;11.516;2022-07-29T14:15:43;28.20;99.90
1806;DHT22;901;48.142;11.516;2022-07-29T14:18:10;28.30;99.90
1806;DHT22;901;48.142;11.516;2022-07-29T14:20:37;28.00;99.90
1806;DHT22;901;48.142;11.516;2022-07-29T14:23:04;27.70;99.90
1806;DHT22;901;48.142;11.516;2022-07-29T14:25:31;27.80;99.90
1806;DHT22;901;48.142;11.516;2022-07-29T14:27:57;27.80;99.90
1806;DHT22;901;48.142;11.516;2022-07-29T14:30:26;27.60;99.90
1806;DHT22;901;48.142;11.516;2022-07-29T14:32:52;27.30;99.90
1806;DHT22;901;48.142;11.516;2022-07-29T14:35:19;27.40;99.90
1806;DHT22;901;48.142;11.516;2022-07-29T14:37:46;27.50;99.90
1806;DHT22;901;48.142;11.516;2022-07-29T14:40:13;27.50;99.90
1806;DHT22;901;48.142;11.516;2022-07-29T14:42:40;27.40;99.90
1806;DHT22;901;48.142;11.516;2022-07-29T14:45:08;27.40;99.90
1806;DHT22;901;48.142;11.516;2022-07-29T14:47:37;27.30;99.90
1806;DHT22;901;48.142;11.516;2022-07-29T14:50:06;27.20;99.90
1806;DHT22;901;48.142;11.516;2022-07-29T14:52:33;27.30;99.90
1806;DHT22;901;48.142;11.516;2022-07-29T14:55:00;27.20;99.90
1806;DHT22;901;48.142;11.516;2022-07-29T14:57:27;27.20;99.90
1806;DHT22;901;48.142;11.516;2022-07-29T14:59:54;27.10;99.90
1806;DHT22;901;48.142;11.516;2022-07-29T15:02:21;27.00;99.90
1806;DHT22;901;48.142;11.516;2022-07-29T15:04:49;27.00;99.90
1806;DHT22;901;48.142;11.516;2022-07-29T15:07:16;27.00;99.90
1806;DHT22;901;48.142;11.516;2022-07-29T15:09:43;27.10;99.90
1806;DHT22;901;48.142;11.516;2022-07-29T15:12:11;27.20;99.90
1806;DHT22;901;48.142;11.516;2022-07-29T15:14:37;27.20;99.90
1806;DHT22;901;48.142;11.516;2022-07-29T15:17:04;27.20;99.90
1806;DHT22;901;48.142;11.516;2022-07-29T15:19:31;26.90;99.90
1806;DHT22;901;48.142;11.516;2022-07-29T15:21:59;26.60;99.90
1806;DHT22;901;48.142;11.516;2022-07-29T15:24:26;26.30;99.90
1806;DHT22;901;48.142;11.516;2022-07-29T15:26:53;26.00;99.90
1806;DHT22;901;48.142;11.516;2022-07-29T15:29:20;25.90;99.90
1806;DHT22;901;48.142;11.516;2022-07-29T15:31:47;25.70;99.90
1806;DHT22;901;48.142;11.516;2022-07-29T15:34:14;25.70;99.90
1806;DHT22;901;48.142;11.516;2022-07-29T15:36:41;25.70;99.90
1806;DHT22;901;48.142;11.516;2022-07-29T15:39:09;25.60;99.90
1806;DHT22;901;48.142;11.516;2022-07-29T15:41:36;25.60;99.90
1806;DHT22;901;48.142;11.516;2022-07-29T15:44:03;25.50;99.90
1806;DHT22;901;48.142;11.516;2022-07-29T15:46:30;25.50;99.90
1806;DHT22;901;48.142;11.516;2022-07-29T15:49:14;25.50;99.90
1806;DHT22;901;48.142;11.516;2022-07-29T15:51:41;25.40;99.90
1806;DHT22;901;48.142;11.516;2022-07-29T15:54:09;25.30;99.90
1806;DHT22;901;48.142;11.516;2022-07-29T15:56:37;25.30;99.90
1806;DHT22;901;48.142;11.516;2022-07-29T15:59:03;25.20;99.90
1806;DHT22;901;48.142;11.516;2022-07-29T16:01:30;25.30;99.90
1806;DHT22;901;48.142;11.516;2022-07-29T16:03:57;25.50;99.90
1806;DHT22;901;48.142;11.516;2022-07-29T16:06:24;25.50;99.90
1806;DHT22;901;48.142;11.516;2022-07-29T16:08:51;25.60;99.90
1806;DHT22;901;48.142;11.516;2022-07-29T16:11:21;25.60;99.90
1806;DHT22;901;48.142;11.516;2022-07-29T16:13:48;25.60;99.90
1806;DHT22;901;48.142;11.516;2022-07-29T16:16:15;25.60;99.90
1806;DHT22;901;48.142;11.516;2022-07-29T16:18:43;25.60;99.90